sensor_id;sensor_type;location;lat;lon;timestamp;P1;durP1;ratioP1;P2;durP2;ratioP2
64714;SDS011;51144;53.002;6.506;2023-05-10T19:27:39;9.30;;;7.57;;
64714;SDS011;51144;53.002;6.506;2023-05-10T19:30:05;9.30;;;8.52;;
64714;SDS011;51144;53.002;6.506;2023-05-10T19:32:31;8.80;;;8.20;;
64714;SDS011;51144;53.002;6.506;2023-05-10T19:34:57;11.60;;;9.07;;
64714;SDS011;51144;53.002;6.506;2023-05-10T19:37:23;9.77;;;8.52;;
64714;SDS011;51144;53.002;6.506;2023-05-10T19:39:49;9.98;;;9.10;;
64714;SDS011;51144;53.002;6.506;2023-05-10T19:42:15;9.30;;;8.55;;
64714;SDS011;51144;53.002;6.506;2023-05-10T19:44:41;10.52;;;9.43;;
64714;SDS011;51144;53.002;6.506;2023-05-10T19:47:07;10.32;;;9.13;;
64714;SDS011;51144;53.002;6.506;2023-05-10T19:49:33;10.27;;;9.43;;
64714;SDS011;51144;53.002;6.506;2023-05-10T19:52:00;9.70;;;8.73;;
64714;SDS011;51144;53.002;6.506;2023-05-10T19:54:27;9.65;;;8.70;;
64714;SDS011;51144;53.002;6.506;2023-05-10T19:56:52;9.85;;;8.90;;
64714;SDS011;51144;53.002;6.506;2023-05-10T19:59:18;9.75;;;8.80;;
64714;SDS011;51144;53.002;6.506;2023-05-10T20:01:44;9.43;;;8.65;;
64714;SDS011;51144;53.002;6.506;2023-05-10T20:04:10;9.65;;;8.48;;
64714;SDS011;51144;53.002;6.506;2023-05-10T20:06:36;9.52;;;8.30;;
64714;SDS011;51144;53.002;6.506;2023-05-10T20:09:02;9.90;;;8.57;;
64714;SDS011;51144;53.002;6.506;2023-05-10T20:11:28;8.98;;;8.23;;
64714;SDS011;51144;53.002;6.506;2023-05-10T20:13:53;9.57;;;8.68;;
64714;SDS011;51144;53.002;6.506;2023-05-10T20:16:19;9.63;;;8.82;;
64714;SDS011;51144;53.002;6.506;2023-05-10T20:18:45;9.38;;;8.68;;
64714;SDS011;51144;53.002;6.506;2023-05-10T20:21:10;10.73;;;8.13;;
64714;SDS011;51144;53.002;6.506;2023-05-10T20:23:36;11.48;;;8.38;;
64714;SDS011;51144;53.002;6.506;2023-05-10T20:26:02;9.15;;;8.25;;
64714;SDS011;51144;53.002;6.506;2023-05-10T20:28:28;9.00;;;8.18;;
64714;SDS011;51144;53.002;6.506;2023-05-10T20:30:54;9.45;;;7.63;;
64714;SDS011;51144;53.002;6.506;2023-05-10T20:33:20;8.68;;;7.88;;
64714;SDS011;51144;53.002;6.506;2023-05-10T20:35:46;10.15;;;9.15;;
64714;SDS011;51144;53.002;6.506;2023-05-10T20:38:13;7.28;;;6.75;;
64714;SDS011;51144;53.002;6.506;2023-05-10T20:40:39;8.90;;;8.10;;
64714;SDS011;51144;53.002;6.506;2023-05-10T20:43:04;9.68;;;8.13;;
64714;SDS011;51144;53.002;6.506;2023-05-10T20:45:30;7.93;;;7.22;;
64714;SDS011;51144;53.002;6.506;2023-05-10T20:47:56;10.00;;;8.93;;
64714;SDS011;51144;53.002;6.506;2023-05-10T20:50:22;9.80;;;8.90;;
64714;SDS011;51144;53.002;6.506;2023-05-10T20:52:48;9.85;;;9.02;;
64714;SDS011;51144;53.002;6.506;2023-05-10T20:55:16;9.68;;;8.88;;
64714;SDS011;51144;53.002;6.506;2023-05-10T20:57:42;9.48;;;8.57;;
64714;SDS011;51144;53.002;6.506;2023-05-10T21:00:09;9.50;;;8.80;;
64714;SDS011;51144;53.002;6.506;2023-05-10T21:02:35;8.95;;;8.27;;
64714;SDS011;51144;53.002;6.506;2023-05-10T21:05:01;9.57;;;8.77;;
64714;SDS011;51144;53.002;6.506;2023-05-10T21:07:26;8.73;;;7.93;;
64714;SDS011;51144;53.002;6.506;2023-05-10T21:09:52;9.60;;;8.80;;
64714;SDS011;51144;53.002;6.506;2023-05-10T21:12:17;8.93;;;8.13;;
64714;SDS011;51144;53.002;6.506;2023-05-10T21:14:43;9.38;;;8.45;;
64714;SDS011;51144;53.002;6.506;2023-05-10T21:17:11;9.25;;;8.55;;
64714;SDS011;51144;53.002;6.506;2023-05-10T21:19:37;9.43;;;8.60;;
64714;SDS011;51144;53.002;6.506;2023-05-10T21:22:02;9.32;;;8.45;;
64714;SDS011;51144;53.002;6.506;2023-05-10T21:24:28;9.40;;;8.40;;
64714;SDS011;51144;53.002;6.506;2023-05-10T21:26:54;9.95;;;9.02;;
64714;SDS011;51144;53.002;6.506;2023-05-10T21:29:20;9.80;;;8.75;;
64714;SDS011;51144;53.002;6.506;2023-05-10T21:31:45;10.05;;;9.15;;
64714;SDS011;51144;53.002;6.506;2023-05-10T21:34:11;10.25;;;9.45;;
64714;SDS011;51144;53.002;6.506;2023-05-10T21:36:38;10.65;;;9.55;;
64714;SDS011;51144;53.002;6.506;2023-05-10T21:39:03;10.45;;;9.63;;
64714;SDS011;51144;53.002;6.506;2023-05-10T21:41:29;9.43;;;8.45;;
64714;SDS011;51144;53.002;6.506;2023-05-10T21:43:55;10.88;;;9.35;;
64714;SDS011;51144;53.002;6.506;2023-05-10T21:46:21;9.77;;;9.00;;
64714;SDS011;51144;53.002;6.506;2023-05-10T21:48:46;9.75;;;8.95;;
64714;SDS011;51144;53.002;6.506;2023-05-10T21:51:12;9.85;;;9.00;;
64714;SDS011;51144;53.002;6.506;2023-05-10T21:53:38;10.13;;;9.07;;
64714;SDS011;51144;53.002;6.506;2023-05-10T21:56:04;9.55;;;8.75;;
64714;SDS011;51144;53.002;6.506;2023-05-10T21:58:31;9.98;;;9.02;;
64714;SDS011;51144;53.002;6.506;2023-05-10T22:00:57;10.20;;;9.13;;
64714;SDS011;51144;53.002;6.506;2023-05-10T22:03:23;11.45;;;9.80;;
64714;SDS011;51144;53.002;6.506;2023-05-10T22:05:48;10.43;;;9.50;;
64714;SDS011;51144;53.002;6.506;2023-05-10T22:08:14;9.90;;;9.10;;
64714;SDS011;51144;53.002;6.506;2023-05-10T22:10:40;10.65;;;9.60;;
64714;SDS011;51144;53.002;6.506;2023-05-10T22:13:06;10.88;;;10.02;;
64714;SDS011;51144;53.002;6.506;2023-05-10T22:15:31;11.60;;;10.40;;
64714;SDS011;51144;53.002;6.506;2023-05-10T22:17:57;10.30;;;9.25;;
64714;SDS011;51144;53.002;6.506;2023-05-10T22:20:23;12.02;;;10.88;;
64714;SDS011;51144;53.002;6.506;2023-05-10T22:22:49;11.07;;;9.98;;
64714;SDS011;51144;53.002;6.506;2023-05-10T22:25:14;10.82;;;9.82;;
64714;SDS011;51144;53.002;6.506;2023-05-10T22:27:40;12.35;;;10.05;;
64714;SDS011;51144;53.002;6.506;2023-05-10T22:30:06;12.13;;;10.98;;
64714;SDS011;51144;53.002;6.506;2023-05-10T22:32:32;11.48;;;10.38;;
64714;SDS011;51144;53.002;6.506;2023-05-10T22:34:58;11.80;;;10.80;;
64714;SDS011;51144;53.002;6.506;2023-05-10T22:37:23;12.38;;;11.27;;
64714;SDS011;51144;53.002;6.506;2023-05-10T22:39:49;14.68;;;10.57;;
64714;SDS011;51144;53.002;6.506;2023-05-10T22:42:15;12.02;;;10.90;;
64714;SDS011;51144;53.002;6.506;2023-05-10T22:44:41;10.10;;;9.10;;
64714;SDS011;51144;53.002;6.506;2023-05-10T22:47:07;11.57;;;10.45;;
64714;SDS011;51144;53.002;6.506;2023-05-10T22:49:33;12.13;;;10.57;;
64714;SDS011;51144;53.002;6.506;2023-05-10T22:51:59;12.32;;;11.23;;
64714;SDS011;51144;53.002;6.506;2023-05-10T22:54:25;13.18;;;11.85;;
64714;SDS011;51144;53.002;6.506;2023-05-10T22:56:51;12.18;;;11.07;;
64714;SDS011;51144;53.002;6.506;2023-05-10T22:59:17;11.70;;;10.57;;
64714;SDS011;51144;53.002;6.506;2023-05-10T23:01:43;12.73;;;11.63;;
64714;SDS011;51144;53.002;6.506;2023-05-10T23:04:09;12.27;;;11.07;;
64714;SDS011;51144;53.002;6.506;2023-05-10T23:06:34;13.25;;;11.93;;
64714;SDS011;51144;53.002;6.506;2023-05-10T23:09:00;12.23;;;10.98;;
64714;SDS011;51144;53.002;6.506;2023-05-10T23:11:25;14.00;;;11.60;;
64714;SDS011;51144;53.002;6.506;2023-05-10T23:13:51;12.07;;;10.98;;
64714;SDS011;51144;53.002;6.506;2023-05-10T23:16:17;13.82;;;11.73;;
64714;SDS011;51144;53.002;6.506;2023-05-10T23:18:42;13.95;;;11.77;;
64714;SDS011;51144;53.002;6.506;2023-05-10T23:21:08;14.73;;;12.40;;
64714;SDS011;51144;53.002;6.506;2023-05-10T23:23:34;12.90;;;11.70;;
64714;SDS011;51144;53.002;6.506;2023-05-10T23:26:00;14.07;;;12.75;;
64714;SDS011;51144;53.002;6.506;2023-05-10T23:28:26;13.20;;;11.85;;
64714;SDS011;51144;53.002;6.506;2023-05-10T23:30:55;13.52;;;12.18;;
64714;SDS011;51144;53.002;6.506;2023-05-10T23:33:21;14.40;;;12.32;;
64714;SDS011;51144;53.002;6.506;2023-05-10T23:35:47;15.60;;;13.10;;
64714;SDS011;51144;53.002;6.506;2023-05-10T23:38:13;14.30;;;12.60;;
64714;SDS011;51144;53.002;6.506;2023-05-10T23:40:38;14.52;;;13.07;;
64714;SDS011;51144;53.002;6.506;2023-05-10T23:43:04;18.25;;;13.27;;
64714;SDS011;51144;53.002;6.506;2023-05-10T23:45:30;17.33;;;13.35;;
64714;SDS011;51144;53.002;6.506;2023-05-10T23:47:56;13.93;;;12.45;;
64714;SDS011;51144;53.002;6.506;2023-05-10T23:50:22;16.48;;;13.85;;
64714;SDS011;51144;53.002;6.506;2023-05-10T23:52:47;15.02;;;13.38;;
64714;SDS011;51144;53.002;6.506;2023-05-10T23:55:13;16.13;;;14.10;;
64714;SDS011;51144;53.002;6.506;2023-05-10T23:57:38;16.95;;;14.80;;
